Time;durP1;ratioP1;P1;durP2;ratioP2;P2;SDS_P1;SDS_P2;PMS_P1;PMS_P2;Temp;Humidity;BMP_temperature;BMP_pressure;BME280_temperature;BME280_humidity;BME280_pressure;Samples;Min_cycle;Max_cycle;Signal;HPM_P1;HPM_P2
2023/10/06 00:02:46;;;;;;;7.50;4.10;;;;;;;14.38;76.92;101220.97;10300091;28;20747;-65
2023/10/06 00:07:50;;;;;;;6.70;4.25;;;;;;;14.36;77.00;101225.59;10289521;28;20058;-64
2023/10/06 00:12:54;;;;;;;6.10;4.13;;;;;;;14.38;75.96;101233.50;10303665;28;20053;-63
2023/10/06 00:17:59;;;;;;;7.40;5.25;;;;;;;14.30;76.72;101220.72;10306887;28;20062;-64
2023/10/06 00:23:06;;;;;;;5.75;4.53;;;;;;;14.27;76.20;101235.22;10308907;28;20045;-64
2023/10/06 00:28:20;;;;;;;6.75;4.78;;;;;;;14.11;76.73;101207.97;10304973;28;20108;-64
2023/10/06 00:33:32;;;;;;;5.47;3.80;;;;;;;14.20;76.81;101247.41;10304838;28;20472;-64
2023/10/06 00:38:36;;;;;;;8.93;4.63;;;;;;;14.21;76.38;101248.25;10265286;28;20813;-62
2023/10/06 00:43:39;;;;;;;6.33;4.60;;;;;;;14.20;76.49;101243.88;10261627;28;20053;-64
2023/10/06 00:48:42;;;;;;;5.72;4.30;;;;;;;14.08;76.39;101227.81;10265427;28;20757;-64
2023/10/06 00:53:44;;;;;;;6.63;4.30;;;;;;;14.05;76.14;101228.06;10263478;28;20176;-62
2023/10/06 00:58:46;;;;;;;7.47;4.05;;;;;;;13.94;76.80;101220.88;10264835;28;20137;-63
2023/10/06 01:04:00;;;;;;;6.78;4.10;;;;;;;14.00;76.12;101234.75;10269992;28;20046;-62
2023/10/06 01:14:15;;;;;;;6.43;3.70;;;;;;;13.81;76.83;101214.81;10295525;28;20561;-64
2023/10/06 01:19:26;;;;;;;5.57;4.28;;;;;;;13.40;77.19;101152.88;10306916;28;20046;-64
2023/10/06 01:24:28;;;;;;;6.97;4.13;;;;;;;13.86;77.57;101222.47;10290769;28;20044;-64
2023/10/06 01:29:30;;;;;;;7.35;4.22;;;;;;;13.73;76.79;101212.72;10307549;28;20464;-64
2023/10/06 01:34:37;;;;;;;7.18;3.70;;;;;;;13.67;77.34;101213.19;10307401;28;20073;-63
2023/10/06 01:39:40;;;;;;;4.53;3.50;;;;;;;13.71;77.13;101212.00;10307272;28;20057;-64
2023/10/06 01:44:42;;;;;;;5.13;3.63;;;;;;;13.73;76.83;101223.41;10309023;28;20081;-64
2023/10/06 01:49:44;;;;;;;6.78;4.18;;;;;;;13.66;76.74;101208.84;10293067;28;20547;-63
2023/10/06 01:54:46;;;;;;;5.93;4.18;;;;;;;13.72;77.56;101216.38;10306919;28;20057;-63
2023/10/06 01:59:49;;;;;;;7.07;3.97;;;;;;;13.68;77.19;101214.91;10307774;28;20050;-65
2023/10/06 02:04:52;;;;;;;5.40;3.67;;;;;;;13.65;76.97;101207.13;10307582;28;20054;-63
2023/10/06 02:09:54;;;;;;;5.00;3.63;;;;;;;13.65;76.22;101211.63;10294766;28;20129;-65
2023/10/06 02:14:56;;;;;;;6.40;4.57;;;;;;;13.58;76.55;101208.56;10303229;28;20153;-65
2023/10/06 02:19:57;;;;;;;6.10;4.03;;;;;;;13.62;77.60;101220.75;10294633;28;20121;-64
2023/10/06 02:25:04;;;;;;;4.70;3.80;;;;;;;13.55;77.24;101214.16;10299699;28;20050;-65
2023/10/06 02:30:10;;;;;;;4.43;3.35;;;;;;;13.55;77.09;101220.34;10293550;28;20046;-64
2023/10/06 02:35:12;;;;;;;5.72;3.88;;;;;;;13.35;76.32;101179.13;10305976;28;20049;-64
2023/10/06 02:40:14;;;;;;;4.75;3.60;;;;;;;13.46;76.85;101193.50;10306383;28;20320;-64
2023/10/06 02:45:20;;;;;;;4.68;4.18;;;;;;;13.48;76.67;101202.22;10306013;28;20042;-64
2023/10/06 02:50:22;;;;;;;6.18;3.65;;;;;;;13.44;76.58;101207.81;10298930;28;20080;-64
2023/10/06 02:55:32;;;;;;;4.57;3.80;;;;;;;13.34;77.23;101196.13;10301113;28;20061;-64
2023/10/06 03:00:36;;;;;;;5.68;3.70;;;;;;;13.39;77.20;101204.66;10303209;28;20058;-65
2023/10/06 03:05:39;;;;;;;7.45;4.22;;;;;;;13.38;77.26;101200.28;10304974;28;20049;-63
2023/10/06 03:10:44;;;;;;;6.47;4.07;;;;;;;13.35;77.16;101189.81;10311397;28;20294;-65
2023/10/06 03:15:46;;;;;;;7.10;3.83;;;;;;;13.33;76.45;101183.72;10310639;28;20078;-63
2023/10/06 03:20:48;;;;;;;5.22;3.63;;;;;;;13.30;76.75;101188.44;10309097;28;20484;-63
2023/10/06 03:25:53;;;;;;;5.25;4.10;;;;;;;13.16;76.43;101189.50;10307870;28;20152;-63
2023/10/06 03:30:55;;;;;;;6.40;4.32;;;;;;;13.15;76.50;101193.13;10307316;28;20094;-61
2023/10/06 03:35:57;;;;;;;6.60;3.83;;;;;;;13.05;77.29;101175.13;10306093;28;20409;-63
2023/10/06 03:41:10;;;;;;;5.35;3.65;;;;;;;13.16;77.32;101189.50;10297838;28;20374;-64
2023/10/06 03:46:12;;;;;;;4.95;3.78;;;;;;;13.12;75.54;101190.69;10299838;28;20252;-61
2023/10/06 03:51:14;;;;;;;5.43;4.03;;;;;;;13.02;77.13;101180.72;10301642;28;20041;-64
2023/10/06 03:56:18;;;;;;;6.30;3.50;;;;;;;12.90;76.95;101169.13;10289926;28;20062;-62
2023/10/06 04:01:26;;;;;;;4.68;3.67;;;;;;;13.01;76.84;101194.19;10302435;28;20054;-63
2023/10/06 04:06:27;;;;;;;5.70;3.88;;;;;;;13.00;76.63;101188.00;10302113;28;20066;-63
2023/10/06 04:11:29;;;;;;;6.07;3.85;;;;;;;13.04;76.80;101189.47;10304784;28;20068;-63
2023/10/06 04:16:31;;;;;;;5.10;3.33;;;;;;;12.99;76.74;101183.63;10307694;28;20105;-62
2023/10/06 04:21:34;;;;;;;6.78;4.28;;;;;;;12.98;76.72;101189.09;10305630;28;20042;-62
2023/10/06 04:26:36;;;;;;;4.65;4.20;;;;;;;12.95;76.62;101189.31;10330456;28;20045;-63
2023/10/06 04:31:38;;;;;;;8.68;4.22;;;;;;;12.93;77.16;101196.59;10327070;28;20053;-63
2023/10/06 04:36:40;;;;;;;6.35;4.75;;;;;;;12.88;76.83;101196.94;10312094;28;20076;-61
2023/10/06 04:41:41;;;;;;;5.72;4.15;;;;;;;12.87;76.53;101212.13;10311367;28;20129;-61
2023/10/06 04:46:43;;;;;;;7.78;4.20;;;;;;;12.78;76.72;101199.44;10309504;28;20062;-63
2023/10/06 04:51:45;;;;;;;5.80;4.35;;;;;;;12.80;76.62;101208.19;10308204;28;20106;-63
2023/10/06 04:56:52;;;;;;;5.55;4.22;;;;;;;12.80;76.97;101199.34;10303641;28;20115;-63
2023/10/06 05:01:55;;;;;;;6.05;4.20;;;;;;;12.72;76.98;101203.44;10313416;28;20520;-62
2023/10/06 05:06:57;;;;;;;8.88;5.88;;;;;;;12.63;78.06;101187.25;10314334;28;20113;-64
2023/10/06 05:11:58;;;;;;;14.68;9.38;;;;;;;12.71;78.55;101203.53;10288943;28;20728;-62
2023/10/06 05:16:59;;;;;;;9.07;5.40;;;;;;;12.65;77.68;101202.19;10307128;28;20054;-63
2023/10/06 05:22:03;;;;;;;7.32;5.40;;;;;;;12.64;77.89;101194.28;10266460;28;21054;-65
2023/10/06 05:27:05;;;;;;;8.13;5.60;;;;;;;12.64;77.43;101197.81;10263710;28;20054;-64
2023/10/06 05:32:07;;;;;;;7.07;4.72;;;;;;;12.59;77.09;101194.63;10267854;28;20053;-65
2023/10/06 05:37:08;;;;;;;9.45;6.57;;;;;;;12.58;78.34;101208.97;10267552;28;20120;-64
2023/10/06 05:42:11;;;;;;;11.48;8.10;;;;;;;12.43;79.46;101194.03;10267639;28;20136;-67
2023/10/06 05:47:13;;;;;;;12.10;8.60;;;;;;;12.51;79.09;101223.72;10267858;28;20165;-65
2023/10/06 05:52:14;;;;;;;11.55;8.07;;;;;;;12.48;79.91;101224.78;10263994;28;20652;-63
2023/10/06 05:57:16;;;;;;;14.27;8.15;;;;;;;12.44;80.16;101217.97;10263479;28;20062;-64
2023/10/06 06:02:18;;;;;;;14.32;8.05;;;;;;;12.44;80.59;101217.13;10262661;28;20732;-64
2023/10/06 06:07:20;;;;;;;15.07;7.57;;;;;;;12.36;81.52;101210.50;10251429;28;20137;-64
2023/10/06 06:12:21;;;;;;;13.35;8.13;;;;;;;12.45;80.97;101226.84;10255184;28;20066;-67
2023/10/06 06:17:23;;;;;;;15.32;9.05;;;;;;;12.37;80.33;101217.56;10264181;28;20111;-65
2023/10/06 06:22:24;;;;;;;13.73;8.93;;;;;;;12.44;81.60;101235.81;10269697;28;20184;-64
2023/10/06 06:27:25;;;;;;;16.48;9.23;;;;;;;12.44;82.31;101225.97;10264495;28;20081;-65
2023/10/06 06:32:27;;;;;;;14.55;8.50;;;;;;;12.57;81.98;101241.97;10249569;28;20138;-66
2023/10/06 06:37:28;;;;;;;14.85;8.90;;;;;;;12.57;82.27;101243.78;10261520;28;20458;-66
2023/10/06 06:42:30;;;;;;;12.85;9.48;;;;;;;12.53;82.55;101232.47;10266483;28;20640;-66
2023/10/06 06:47:31;;;;;;;10.95;8.52;;;;;;;12.61;80.56;101238.13;10271630;28;20148;-65
2023/10/06 06:52:34;;;;;;;14.23;9.15;;;;;;;12.58;82.93;101235.66;10289276;28;20188;-66
2023/10/06 06:57:35;;;;;;;13.68;9.88;;;;;;;12.58;81.04;101230.31;10287708;28;20193;-65
2023/10/06 07:02:37;;;;;;;14.90;10.38;;;;;;;12.57;81.37;101223.28;10290570;28;20061;-66
2023/10/06 07:07:50;;;;;;;12.80;8.35;;;;;;;12.63;82.27;101243.34;10300365;28;20664;-65
2023/10/06 07:12:52;;;;;;;16.13;9.47;;;;;;;12.69;82.70;101217.00;10303174;28;20054;-65
2023/10/06 07:18:03;;;;;;;12.15;10.88;;;;;;;12.90;82.67;101240.44;10272678;27;20921;-54
2023/10/06 07:23:05;;;;;;;14.10;11.23;;;;;;;12.89;82.27;101225.38;10343149;28;20178;-54
2023/10/06 07:28:07;;;;;;;12.10;10.32;;;;;;;12.90;82.21;101251.13;10366509;28;20050;-54
2023/10/06 07:33:09;;;;;;;13.98;11.88;;;;;;;12.83;82.09;101220.47;10367192;28;20136;-54
2023/10/06 07:38:11;;;;;;;15.00;13.10;;;;;;;13.07;82.25;101253.38;10369176;28;20068;-54
2023/10/06 07:43:15;;;;;;;13.32;11.98;;;;;;;13.15;81.43;101259.97;10372677;28;20037;-54
2023/10/06 07:48:17;;;;;;;17.52;13.18;;;;;;;13.33;81.95;101247.91;10367931;28;20509;-53
2023/10/06 07:53:19;;;;;;;13.95;11.02;;;;;;;13.40;81.84;101246.47;10369638;28;20154;-55
2023/10/06 07:58:20;;;;;;;15.70;12.80;;;;;;;13.43;81.00;101250.72;10377982;28;20060;-53
2023/10/06 08:03:22;;;;;;;16.50;12.77;;;;;;;13.66;83.01;101258.81;10362323;28;20336;-54
2023/10/06 08:08:24;;;;;;;12.85;11.32;;;;;;;13.98;81.51;101261.66;10369294;28;20049;-54
2023/10/06 08:13:35;;;;;;;19.13;13.40;;;;;;;14.28;81.99;101260.19;10363390;28;20462;-54
2023/10/06 08:18:37;;;;;;;14.00;11.25;;;;;;;14.48;79.82;101250.53;10365613;28;20056;-54
2023/10/06 08:23:38;;;;;;;16.75;11.73;;;;;;;14.66;80.04;101253.56;10367643;28;20068;-55
2023/10/06 08:28:40;;;;;;;16.13;11.18;;;;;;;14.94;78.99;101256.66;10334997;28;20451;-54
2023/10/06 08:33:43;;;;;;;11.85;8.57;;;;;;;15.08;77.67;101242.94;10343001;28;20474;-54
2023/10/06 08:38:46;;;;;;;12.50;8.15;;;;;;;15.41;77.90;101248.28;10338988;28;20137;-55
2023/10/06 08:43:51;;;;;;;11.90;8.57;;;;;;;15.62;76.26;101245.56;10339557;28;21586;-55
2023/10/06 08:48:56;;;;;;;13.77;9.35;;;;;;;15.77;73.54;101244.25;10365149;28;20057;-54
2023/10/06 08:54:00;;;;;;;12.90;8.85;;;;;;;15.80;71.43;101244.00;10334136;28;20728;-55
2023/10/06 08:59:01;;;;;;;;;;;;;;;15.79;71.29;101241.47;10341283;28;20053;-54
2023/10/06 09:04:04;;;;;;;11.40;9.50;;;;;;;15.92;71.07;101225.97;10348228;28;20386;-54
2023/10/06 09:09:06;;;;;;;13.48;9.23;;;;;;;16.01;71.57;101229.69;10343354;28;20059;-54
2023/10/06 09:14:08;;;;;;;12.25;9.48;;;;;;;16.11;70.61;101224.34;10336275;28;20164;-56
2023/10/06 09:19:11;;;;;;;13.82;9.18;;;;;;;16.27;70.67;101224.69;10336556;28;20049;-54
2023/10/06 09:24:19;;;;;;;12.02;9.27;;;;;;;16.28;69.01;101214.81;10332384;28;20184;-54
2023/10/06 09:29:32;;;;;;;13.95;9.88;;;;;;;16.41;69.51;101228.84;10328994;28;20053;-55
2023/10/06 09:34:35;;;;;;;12.75;8.13;;;;;;;16.67;68.88;101222.94;10334546;28;20072;-55
2023/10/06 09:39:37;;;;;;;10.48;8.45;;;;;;;16.92;67.20;101208.13;10334041;28;20533;-55
2023/10/06 09:44:41;;;;;;;10.55;7.70;;;;;;;17.07;66.28;101213.91;10329247;28;20071;-55
2023/10/06 09:49:44;;;;;;;11.00;7.97;;;;;;;17.10;65.79;101209.09;10333719;28;20050;-55
2023/10/06 09:54:48;;;;;;;11.13;7.43;;;;;;;17.14;66.33;101201.59;10296639;23;20195;-58
2023/10/06 09:59:53;;;;;;;9.75;6.38;;;;;;;17.51;66.50;101195.44;10330972;28;20056;-57
2023/10/06 10:04:59;;;;;;;9.02;7.38;;;;;;;17.83;64.89;101192.38;10333001;28;20056;-57
2023/10/06 10:10:05;;;;;;;8.65;6.75;;;;;;;18.09;65.64;101188.13;10331927;28;20596;-57
2023/10/06 10:15:37;;;;;;;8.60;6.82;;;;;;;18.56;63.65;101196.09;10331750;28;20072;-55
2023/10/06 10:20:40;;;;;;;9.90;7.78;;;;;;;18.72;60.23;101166.59;10333953;28;20196;-58
2023/10/06 10:25:42;;;;;;;7.00;5.30;;;;;;;19.16;60.72;101178.44;10340344;28;20049;-57
2023/10/06 10:30:59;;;;;;;6.72;5.25;;;;;;;19.37;59.87;101161.88;10328794;28;20081;-60
2023/10/06 10:36:11;;;;;;;8.38;5.78;;;;;;;19.86;58.19;101164.00;10336198;28;20159;-53
2023/10/06 10:41:16;;;;;;;6.15;4.57;;;;;;;20.12;57.92;101153.97;10333235;28;20076;-53
2023/10/06 10:46:43;;;;;;;7.28;4.97;;;;;;;20.27;55.23;101156.06;10331371;28;20084;-53
2023/10/06 10:51:53;;;;;;;7.05;5.22;;;;;;;20.53;56.29;101171.31;10334606;28;20050;-52
2023/10/06 10:57:02;;;;;;;8.40;4.95;;;;;;;20.93;54.11;101161.59;10344191;28;20046;-53
2023/10/06 11:02:07;;;;;;;8.07;4.40;;;;;;;21.15;52.57;101144.63;10338941;28;20149;-58
2023/10/06 11:07:11;;;;;;;6.60;4.60;;;;;;;21.22;50.49;101131.25;10337111;28;20165;-59
2023/10/06 11:12:16;;;;;;;7.78;4.22;;;;;;;21.24;50.12;101134.63;10342517;28;20069;-58
2023/10/06 11:17:23;;;;;;;6.18;3.28;;;;;;;21.68;50.49;101127.94;10340211;28;20077;-57
2023/10/06 11:22:26;;;;;;;5.32;2.88;;;;;;;22.27;48.86;101124.75;10342279;28;20508;-57
2023/10/06 11:27:28;;;;;;;6.97;2.80;;;;;;;22.75;48.58;101113.75;10338156;28;20050;-58
2023/10/06 11:32:31;;;;;;;6.80;2.97;;;;;;;23.04;45.36;101090.41;10333822;28;20132;-56
2023/10/06 11:37:33;;;;;;;4.93;2.85;;;;;;;23.33;45.86;101099.63;10343787;28;20111;-56
2023/10/06 11:42:37;;;;;;;5.43;2.33;;;;;;;23.85;44.63;101086.94;10344910;28;20053;-56
2023/10/06 11:47:39;;;;;;;4.38;2.65;;;;;;;24.14;44.34;101080.56;10339370;28;21006;-57
2023/10/06 11:52:42;;;;;;;;;;;;;;;24.30;41.50;101074.88;10338684;28;20049;-57
2023/10/06 11:57:45;;;;;;;4.27;2.37;;;;;;;24.32;41.67;101072.84;10340223;28;19972;-56
2023/10/06 12:02:51;;;;;;;7.95;2.83;;;;;;;24.57;40.87;101058.81;10344256;28;20135;-56
2023/10/06 12:07:59;;;;;;;5.35;2.55;;;;;;;24.67;39.94;101047.63;10343212;28;20064;-59
2023/10/06 12:13:05;;;;;;;8.20;3.22;;;;;;;24.24;41.05;101055.78;10346903;28;20060;-58
2023/10/06 12:18:07;;;;;;;6.17;2.70;;;;;;;24.83;40.04;101041.88;10336245;28;20076;-57
2023/10/06 12:23:10;;;;;;;5.72;2.40;;;;;;;25.23;39.10;101024.94;10335881;28;20293;-57
2023/10/06 12:28:16;;;;;;;6.55;2.72;;;;;;;25.04;38.60;101030.09;10339811;28;20512;-57
2023/10/06 12:33:18;;;;;;;5.15;2.33;;;;;;;25.74;37.22;101026.44;10333809;28;20123;-57
2023/10/06 12:38:19;;;;;;;5.05;2.42;;;;;;;25.88;36.37;101016.41;10345125;28;20184;-58
2023/10/06 12:43:21;;;;;;;4.60;2.40;;;;;;;26.21;36.16;101016.50;10337556;28;20609;-57
2023/10/06 12:48:23;;;;;;;5.38;2.60;;;;;;;27.14;36.01;100998.31;10339395;28;20121;-55
2023/10/06 12:53:24;;;;;;;3.10;2.20;;;;;;;27.56;34.96;100989.78;10333323;28;20135;-57
2023/10/06 12:58:26;;;;;;;4.70;2.72;;;;;;;27.74;34.13;100987.13;10340767;28;20084;-58
2023/10/06 13:03:27;;;;;;;3.58;2.42;;;;;;;28.26;33.90;100999.88;10337074;28;20092;-58
2023/10/06 13:08:30;;;;;;;5.75;2.80;;;;;;;28.82;32.64;100990.72;10352382;28;20559;-57
2023/10/06 13:13:34;;;;;;;6.97;3.05;;;;;;;29.22;32.41;100982.09;10336687;28;20732;-57
2023/10/06 13:18:36;;;;;;;6.22;3.00;;;;;;;30.37;31.25;100975.78;10338803;28;20049;-56
2023/10/06 13:23:38;;;;;;;;;;;;;;;30.66;29.84;100961.13;10326148;28;20058;-57
2023/10/06 13:28:42;;;;;;;6.70;3.73;;;;;;;31.41;28.15;100946.72;10340740;28;20039;-56
2023/10/06 13:33:43;;;;;;;4.82;2.65;;;;;;;32.38;27.29;100936.59;10338728;28;20926;-57
2023/10/06 13:38:45;;;;;;;6.38;3.30;;;;;;;34.08;25.40;100956.00;10337495;28;20053;-57
2023/10/06 13:43:47;;;;;;;;;;;;;;;32.20;27.49;100954.22;10337711;28;20080;-57
2023/10/06 13:48:48;;;;;;;5.20;2.40;;;;;;;30.19;30.20;100958.34;10341951;28;20443;-58
2023/10/06 13:53:50;;;;;;;7.20;2.88;;;;;;;28.16;33.26;100951.94;10342266;28;20283;-57
2023/10/06 13:58:52;;;;;;;6.78;3.30;;;;;;;26.55;35.05;100956.44;10336260;28;20061;-56
2023/10/06 14:03:53;;;;;;;6.65;2.97;;;;;;;25.44;39.16;100955.06;10337920;28;20061;-56
2023/10/06 14:08:55;;;;;;;5.38;3.10;;;;;;;26.16;36.86;100941.78;10339089;28;20069;-56
2023/10/06 14:13:57;;;;;;;5.28;2.88;;;;;;;25.40;37.67;100939.13;10343027;28;20236;-56
2023/10/06 14:18:59;;;;;;;7.93;3.38;;;;;;;24.29;40.16;100937.22;10342503;28;20406;-56
2023/10/06 14:24:02;;;;;;;5.97;2.77;;;;;;;25.19;38.78;100941.94;10336657;28;20055;-56
2023/10/06 14:29:05;;;;;;;6.40;2.88;;;;;;;25.41;38.66;100946.22;10336302;28;21039;-56
2023/10/06 14:34:36;;;;;;;6.18;3.33;;;;;;;24.82;39.94;100925.03;10335433;28;20244;-55
2023/10/06 14:50:13;;;;;;;8.35;3.95;;;;;;;23.02;43.34;100907.84;10339420;28;20053;-59
2023/10/06 14:55:15;;;;;;;6.43;2.97;;;;;;;22.58;44.19;100918.53;10333423;28;20200;-57
2023/10/06 15:00:16;;;;;;;4.78;3.25;;;;;;;22.22;45.00;100913.78;10342059;28;20135;-57
2023/10/06 15:05:18;;;;;;;7.28;3.60;;;;;;;21.97;46.02;100901.50;10338320;28;20053;-56
2023/10/06 15:10:19;;;;;;;8.32;3.28;;;;;;;21.78;46.57;100900.94;10332410;28;20161;-57
2023/10/06 15:15:22;;;;;;;7.00;3.50;;;;;;;21.60;46.95;100919.38;10333494;28;20065;-55
2023/10/06 15:20:26;;;;;;;9.65;3.92;;;;;;;21.42;47.56;100915.06;10332374;28;20100;-55
2023/10/06 15:25:30;;;;;;;7.22;3.10;;;;;;;21.27;48.30;100895.19;10334491;28;20073;-56
2023/10/06 15:30:41;;;;;;;6.60;3.67;;;;;;;20.99;48.84;100872.16;10335719;28;20140;-55
2023/10/06 15:35:43;;;;;;;6.03;3.03;;;;;;;20.88;49.63;100891.47;10324861;28;20186;-57
2023/10/06 15:40:44;;;;;;;4.32;2.90;;;;;;;20.72;50.50;100884.28;10344699;28;20465;-55
2023/10/06 15:45:58;;;;;;;4.78;2.95;;;;;;;20.60;50.90;100891.06;10337721;28;20057;-55
2023/10/06 15:51:07;;;;;;;8.25;3.10;;;;;;;20.29;51.41;100868.31;10336569;28;20055;-54
2023/10/06 15:56:13;;;;;;;9.32;3.63;;;;;;;20.19;51.97;100899.25;10341999;28;20053;-59
2023/10/06 16:01:17;;;;;;;5.65;3.35;;;;;;;20.09;52.39;100897.56;10343098;28;20694;-54
2023/10/06 16:06:21;;;;;;;6.25;3.13;;;;;;;20.06;52.29;100883.56;10333898;28;20466;-55
2023/10/06 16:11:22;;;;;;;6.28;3.40;;;;;;;19.93;52.29;100874.09;10333260;28;20050;-54
2023/10/06 16:16:24;;;;;;;6.22;3.38;;;;;;;19.98;52.31;100889.81;10332108;28;20156;-56
2023/10/06 16:21:26;;;;;;;9.45;3.40;;;;;;;19.85;52.52;100881.41;10326837;28;20076;-55
2023/10/06 16:26:29;;;;;;;5.97;3.70;;;;;;;19.79;52.96;100888.31;10335875;28;20053;-56
2023/10/06 16:31:32;;;;;;;6.40;3.78;;;;;;;19.65;53.13;100875.44;10341686;28;20046;-55
2023/10/06 16:36:35;;;;;;;9.00;4.57;;;;;;;19.59;53.31;100885.03;10332709;28;20048;-55
2023/10/06 16:41:36;;;;;;;8.65;3.70;;;;;;;19.53;54.04;100878.47;10336390;28;20059;-57
2023/10/06 16:46:38;;;;;;;8.77;4.10;;;;;;;19.43;53.98;100886.72;10329952;28;20094;-55
2023/10/06 16:51:39;;;;;;;5.72;3.90;;;;;;;19.33;54.75;100882.47;10340183;28;20056;-55
2023/10/06 16:56:41;;;;;;;6.05;4.30;;;;;;;19.28;54.54;100893.78;10336416;28;21064;-55
2023/10/06 17:01:42;;;;;;;7.10;3.90;;;;;;;19.20;54.65;100891.03;10336001;28;20170;-55
2023/10/06 17:06:48;;;;;;;8.13;4.43;;;;;;;19.25;55.77;100899.50;10338143;28;20460;-54
2023/10/06 17:11:49;;;;;;;6.57;4.20;;;;;;;19.18;55.65;100899.31;10336985;28;20144;-55
2023/10/06 17:16:52;;;;;;;7.80;3.72;;;;;;;19.12;56.27;100894.56;10336161;28;20065;-54
2023/10/06 17:21:54;;;;;;;8.88;3.80;;;;;;;19.06;56.91;100901.44;10338019;28;20060;-55
2023/10/06 17:26:56;;;;;;;10.00;4.55;;;;;;;18.99;56.13;100907.66;10332291;28;20583;-55
2023/10/06 17:32:01;;;;;;;11.13;4.72;;;;;;;18.94;57.26;100907.31;10335327;28;20207;-56
2023/10/06 17:37:03;;;;;;;8.15;4.63;;;;;;;18.84;57.59;100899.31;10332475;28;20139;-54
2023/10/06 17:42:26;;;;;;;7.80;4.47;;;;;;;18.77;57.41;100904.53;10329230;28;20077;-54
2023/10/06 17:47:27;;;;;;;8.02;4.60;;;;;;;18.70;57.86;100898.91;10336902;28;20049;-54
2023/10/06 17:52:29;;;;;;;9.00;4.85;;;;;;;18.55;57.57;100884.34;10341727;28;20041;-55
2023/10/06 17:57:30;;;;;;;12.07;5.53;;;;;;;18.53;58.28;100897.16;10331169;28;20827;-54
2023/10/06 18:02:33;;;;;;;8.60;4.70;;;;;;;18.39;57.90;100885.13;10332454;28;20058;-54
2023/10/06 18:07:35;;;;;;;7.47;4.57;;;;;;;18.38;58.25;100899.59;10335534;28;20045;-55
2023/10/06 18:12:36;;;;;;;9.93;5.43;;;;;;;18.34;58.78;100901.75;10335595;28;20064;-55
2023/10/06 18:17:39;;;;;;;8.70;5.07;;;;;;;18.29;58.83;100904.06;10329977;28;20049;-55
2023/10/06 18:22:41;;;;;;;8.23;5.45;;;;;;;18.09;60.20;100872.94;10335531;28;20061;-55
2023/10/06 18:27:43;;;;;;;9.73;6.53;;;;;;;18.26;60.64;100901.69;10332514;28;20125;-55
2023/10/06 18:32:45;;;;;;;9.20;6.35;;;;;;;18.26;60.22;100904.41;10331432;28;20244;-54
2023/10/06 18:37:47;;;;;;;9.00;6.93;;;;;;;18.20;59.95;100905.88;10330928;28;20195;-55
2023/10/06 18:42:49;;;;;;;8.50;6.63;;;;;;;18.15;60.99;100910.03;10339081;28;20468;-55
2023/10/06 18:47:51;;;;;;;10.73;7.93;;;;;;;18.11;60.75;100914.06;10335919;28;20271;-58
2023/10/06 18:52:53;;;;;;;10.05;7.68;;;;;;;18.07;61.83;100913.50;10330596;28;20679;-56
2023/10/06 18:58:00;;;;;;;10.75;8.25;;;;;;;18.04;62.06;100911.13;10333512;28;20146;-55
2023/10/06 19:03:02;;;;;;;10.50;7.90;;;;;;;17.97;61.46;100902.84;10336726;28;20536;-56
2023/10/06 19:08:04;;;;;;;15.15;9.07;;;;;;;17.99;62.25;100908.06;10338118;28;20207;-55
2023/10/06 19:13:06;;;;;;;11.27;8.20;;;;;;;17.93;61.71;100906.84;10337708;28;20135;-55
2023/10/06 19:18:09;;;;;;;9.35;7.10;;;;;;;17.87;62.13;100907.44;10333430;28;20056;-55
2023/10/06 19:23:10;;;;;;;9.63;6.88;;;;;;;17.85;63.16;100914.84;10334186;28;20054;-55
2023/10/06 19:28:12;;;;;;;11.40;6.90;;;;;;;17.79;61.33;100910.91;10330847;28;20255;-55
2023/10/06 19:33:14;;;;;;;7.82;6.25;;;;;;;17.75;62.02;100901.44;10333658;28;20285;-55
2023/10/06 19:38:16;;;;;;;10.55;7.35;;;;;;;17.70;62.48;100900.19;10329584;28;20519;-55
2023/10/06 19:43:20;;;;;;;10.82;6.32;;;;;;;17.66;62.37;100902.38;10330933;28;20893;-55
2023/10/06 19:48:22;;;;;;;10.90;6.60;;;;;;;17.62;62.33;100898.28;10329955;28;20077;-53
2023/10/06 19:53:24;;;;;;;9.50;6.65;;;;;;;17.60;62.44;100901.13;10335383;28;20286;-54
2023/10/06 19:58:26;;;;;;;8.45;5.53;;;;;;;17.59;62.43;100899.44;10324309;28;20072;-55
2023/10/06 20:03:27;;;;;;;10.20;7.55;;;;;;;17.48;63.32;100896.97;10335810;28;20050;-55
2023/10/06 20:08:29;;;;;;;10.32;6.72;;;;;;;17.52;63.09;100901.06;10330766;28;20069;-56
2023/10/06 20:13:31;;;;;;;10.07;6.53;;;;;;;17.39;64.19;100881.75;10338708;28;20160;-56
2023/10/06 20:18:32;;;;;;;9.45;7.50;;;;;;;17.45;63.32;100891.91;10331791;28;20116;-54
2023/10/06 20:23:33;;;;;;;9.95;6.28;;;;;;;17.33;63.57;100893.13;10340597;28;20060;-55
2023/10/06 20:28:35;;;;;;;9.10;6.28;;;;;;;17.04;62.90;100864.56;10340292;28;20053;-55
2023/10/06 20:33:37;;;;;;;8.27;6.00;;;;;;;17.10;64.25;100893.56;10324109;28;20045;-55
2023/10/06 20:38:38;;;;;;;8.57;6.35;;;;;;;17.06;63.48;100892.16;10344534;28;20388;-55
2023/10/06 20:43:41;;;;;;;11.18;5.93;;;;;;;16.91;64.37;100889.13;10334511;28;20079;-55
2023/10/06 20:48:43;;;;;;;9.43;6.20;;;;;;;16.83;64.47;100887.16;10339709;28;20053;-54
2023/10/06 20:53:45;;;;;;;8.77;5.95;;;;;;;16.90;64.67;100901.72;10343379;28;20514;-55
2023/10/06 20:58:48;;;;;;;10.93;5.65;;;;;;;16.85;64.98;100917.41;10341066;28;20213;-54
2023/10/06 21:03:49;;;;;;;9.73;6.47;;;;;;;16.85;65.21;100917.41;10339048;28;20219;-54
2023/10/06 21:08:55;;;;;;;10.05;6.38;;;;;;;16.76;64.67;100910.25;10338815;28;20048;-55
2023/10/06 21:13:56;;;;;;;7.60;5.57;;;;;;;16.67;65.06;100909.28;10335278;28;20053;-55
2023/10/06 21:18:58;;;;;;;9.60;5.97;;;;;;;16.35;65.83;100877.41;10341199;28;20057;-55
2023/10/06 21:24:00;;;;;;;10.43;6.55;;;;;;;16.48;65.36;100920.94;10335926;28;20045;-56
2023/10/06 21:29:02;;;;;;;10.82;6.35;;;;;;;16.40;67.11;100923.50;10338430;28;20054;-55
2023/10/06 21:34:04;;;;;;;8.85;5.78;;;;;;;16.40;67.33;100931.56;10338683;28;20053;-54
2023/10/06 21:39:06;;;;;;;12.52;6.45;;;;;;;16.31;67.05;100919.84;10341636;28;20062;-55
2023/10/06 21:44:08;;;;;;;10.27;5.50;;;;;;;16.33;67.79;100930.44;10344586;28;20050;-55
2023/10/06 21:49:13;;;;;;;10.40;6.10;;;;;;;16.30;68.17;100938.81;10337841;28;20049;-55
2023/10/06 21:54:14;;;;;;;9.43;5.68;;;;;;;16.11;67.93;100926.25;10338155;28;20065;-55
2023/10/06 21:59:16;;;;;;;9.35;5.03;;;;;;;16.07;68.64;100921.16;10337908;28;20320;-55
2023/10/06 22:04:17;;;;;;;8.32;5.85;;;;;;;15.95;69.34;100903.50;10337888;28;20065;-55
2023/10/06 22:09:21;;;;;;;9.77;6.75;;;;;;;16.10;68.22;100933.47;10339576;28;20128;-55
2023/10/06 22:14:22;;;;;;;8.75;6.10;;;;;;;16.00;68.88;100927.25;10331986;28;20050;-55
2023/10/06 22:19:24;;;;;;;8.50;5.80;;;;;;;15.98;68.51;100931.94;10320408;28;20055;-55
2023/10/06 22:24:28;;;;;;;8.75;5.93;;;;;;;15.96;68.77;100929.38;10332141;28;20083;-55
2023/10/06 22:29:30;;;;;;;9.05;5.70;;;;;;;15.92;69.26;100927.97;10337671;28;20060;-55
2023/10/06 22:34:32;;;;;;;10.90;6.18;;;;;;;15.85;69.43;100929.50;10335325;28;21023;-54
2023/10/06 22:39:34;;;;;;;8.32;5.65;;;;;;;15.85;69.59;100930.38;10332980;28;20231;-55
2023/10/06 22:44:35;;;;;;;7.22;5.22;;;;;;;15.88;69.14;100919.34;10336726;28;20591;-55
2023/10/06 22:49:37;;;;;;;9.40;5.93;;;;;;;15.89;68.71;100922.88;10335665;28;20072;-55
2023/10/06 22:54:39;;;;;;;6.85;4.85;;;;;;;15.89;69.53;100912.97;10336286;28;20057;-55
2023/10/06 22:59:40;;;;;;;10.55;6.20;;;;;;;15.90;69.72;100920.06;10334606;28;20056;-54
2023/10/06 23:04:42;;;;;;;9.68;6.03;;;;;;;15.77;68.35;100891.78;10335691;28;20234;-54
2023/10/06 23:09:44;;;;;;;8.70;5.43;;;;;;;15.77;68.19;100905.19;10334244;28;20297;-54
2023/10/06 23:14:46;;;;;;;8.13;6.18;;;;;;;15.75;68.02;100908.03;10335369;28;20489;-55
2023/10/06 23:19:55;;;;;;;9.63;6.07;;;;;;;15.72;67.67;100894.88;10341962;28;20046;-55
2023/10/06 23:25:02;;;;;;;9.43;5.75;;;;;;;15.69;68.77;100909.44;10338379;28;20155;-54